Time;durP1;ratioP1;P1;durP2;ratioP2;P2;SDS_P1;SDS_P2;PMS_P1;PMS_P2;Temp;Humidity;BMP_temperature;BMP_pressure;BME280_temperature;BME280_humidity;BME280_pressure;Samples;Min_cycle;Max_cycle;Signal;HPM_P1;HPM_P2
2022/06/29 00:00:23;;;;;;;9.10;4.60;;;13.70;99.90;;;12.64;100.00;101746.28;5040656;28;20103;-76
2022/06/29 00:02:51;;;;;;;6.67;3.93;;;13.60;99.90;;;12.56;100.00;101735.16;5009756;28;20446;-76
2022/06/29 00:05:21;;;;;;;4.80;2.75;;;13.60;99.90;;;12.54;100.00;101724.63;5035003;28;20736;-76
2022/06/29 00:07:47;;;;;;;5.32;2.28;;;13.60;99.90;;;12.47;100.00;101718.72;5039978;28;20043;-76
2022/06/29 00:10:14;;;;;;;12.73;3.97;;;13.50;99.90;;;12.43;100.00;101711.84;5029243;28;20029;-76
2022/06/29 00:12:43;;;;;;;7.97;3.40;;;13.50;99.90;;;12.41;100.00;101712.84;5041681;28;20035;-76
2022/06/29 00:15:09;;;;;;;8.68;4.25;;;13.50;99.90;;;12.39;100.00;101725.22;5031669;28;20025;-76
2022/06/29 00:17:35;;;;;;;8.15;4.18;;;13.40;99.90;;;12.38;100.00;101719.09;5023066;28;20024;-77
2022/06/29 00:20:10;;;;;;;10.75;4.70;;;13.40;99.90;;;12.37;100.00;101704.16;5012581;28;20082;-76
2022/06/29 00:22:37;;;;;;;14.57;3.05;;;13.40;99.90;;;12.28;100.00;101686.88;5029573;28;20027;-77
2022/06/29 00:25:03;;;;;;;10.65;3.30;;;13.30;99.90;;;12.07;100.00;101688.59;5038784;28;20139;-77
2022/06/29 00:27:29;;;;;;;13.20;3.42;;;13.20;99.90;;;11.97;100.00;101694.25;5014068;28;20044;-77
2022/06/29 00:29:55;;;;;;;16.83;5.20;;;13.10;99.90;;;11.93;100.00;101696.16;5035168;28;20448;-77
2022/06/29 00:32:21;;;;;;;11.18;5.93;;;13.10;99.90;;;11.94;100.00;101708.41;5040552;28;20115;-77
2022/06/29 00:34:47;;;;;;;;;;;13.10;99.90;;;11.99;100.00;101700.34;5041263;28;20037;-76
2022/06/29 00:37:15;;;;;;;12.13;6.43;;;13.10;99.90;;;12.05;100.00;101700.97;5040150;28;19912;-77
2022/06/29 00:39:41;;;;;;;11.10;5.32;;;13.20;99.90;;;12.14;100.00;101712.97;5020917;28;20449;-77
2022/06/29 00:42:07;;;;;;;14.40;4.70;;;13.30;99.90;;;12.22;100.00;101712.66;5027216;28;20028;-76
2022/06/29 00:44:33;;;;;;;12.15;4.82;;;13.30;99.90;;;12.27;100.00;101710.72;5031305;28;20078;-77
2022/06/29 00:47:06;;;;;;;11.73;4.50;;;13.40;99.90;;;12.30;100.00;101707.97;5048860;28;20466;-77
2022/06/29 00:49:34;;;;;;;9.85;4.55;;;13.40;99.90;;;12.31;100.00;101709.69;5024013;28;20681;-77
2022/06/29 00:52:11;;;;;;;7.80;4.97;;;13.40;99.90;;;12.30;100.00;101708.81;5024006;28;20036;-77
2022/06/29 00:54:51;;;;;;;13.75;5.40;;;13.40;99.90;;;12.32;100.00;101709.63;5047821;28;20032;-77
2022/06/29 00:57:24;;;;;;;8.80;5.18;;;13.40;99.90;;;12.33;100.00;101710.47;5019875;28;20502;-77
2022/06/29 00:59:54;;;;;;;10.52;4.95;;;13.40;99.90;;;12.30;100.00;101697.41;5025562;28;20021;-77
2022/06/29 01:02:28;;;;;;;12.52;5.07;;;13.30;99.90;;;12.16;100.00;101690.00;5032807;28;20399;-76
2022/06/29 01:04:55;;;;;;;26.17;5.03;;;13.10;99.90;;;11.94;100.00;101694.34;5030474;28;20484;-77
2022/06/29 01:07:28;;;;;;;24.35;4.80;;;13.00;99.90;;;11.78;100.00;101686.13;5015140;28;20037;-77
2022/06/29 01:09:54;;;;;;;15.70;3.97;;;12.80;99.90;;;11.60;100.00;101683.22;5003009;28;20045;-76
2022/06/29 01:12:21;;;;;;;21.63;3.65;;;12.70;99.90;;;11.49;100.00;101683.59;5038663;28;20132;-78
2022/06/29 01:14:49;;;;;;;17.08;3.22;;;12.60;99.90;;;11.38;100.00;101684.88;5026414;28;20017;-77
2022/06/29 01:17:15;;;;;;;13.80;3.60;;;12.50;99.90;;;11.27;100.00;101683.50;5039887;28;20481;-77
2022/06/29 01:19:42;;;;;;;9.82;3.05;;;12.40;99.90;;;11.21;100.00;101694.25;5032730;28;20070;-77
2022/06/29 01:22:18;;;;;;;15.60;3.58;;;12.30;99.90;;;11.20;100.00;101699.56;5022836;28;20048;-77
2022/06/29 01:24:45;;;;;;;14.93;3.83;;;12.30;99.90;;;11.22;100.00;101688.03;5019749;28;20016;-77
2022/06/29 01:27:13;;;;;;;16.48;4.68;;;12.30;99.90;;;11.23;100.00;101675.72;5033993;28;20032;-77
2022/06/29 01:29:39;;;;;;;18.27;4.60;;;12.30;99.90;;;11.23;100.00;101683.63;5022940;28;20032;-76
2022/06/29 01:32:06;;;;;;;18.17;4.10;;;12.30;99.90;;;11.19;100.00;101677.63;4996004;28;20024;-77
2022/06/29 01:34:35;;;;;;;13.75;6.28;;;12.30;99.90;;;11.19;100.00;101669.72;5026233;28;20020;-77
2022/06/29 01:37:03;;;;;;;20.77;6.03;;;12.30;99.90;;;11.20;100.00;101668.78;5000962;28;20056;-77
2022/06/29 01:39:29;;;;;;;27.98;5.38;;;12.20;99.90;;;11.17;100.00;101666.25;5021760;28;20723;-77
2022/06/29 01:41:57;;;;;;;33.00;5.85;;;12.20;99.90;;;11.11;100.00;101669.09;5027344;28;20428;-78
2022/06/29 01:44:27;;;;;;;27.02;5.55;;;12.20;99.90;;;11.04;100.00;101662.31;5026933;28;20476;-77
2022/06/29 01:46:54;;;;;;;26.02;5.57;;;12.10;99.90;;;10.99;100.00;101658.97;5034595;28;20033;-77
2022/06/29 01:49:19;;;;;;;22.95;5.18;;;12.10;99.90;;;10.97;100.00;101656.41;5021666;28;20042;-77
2022/06/29 01:51:45;;;;;;;18.02;4.20;;;12.10;99.90;;;10.95;100.00;101655.59;5025489;28;20032;-77
2022/06/29 01:54:12;;;;;;;13.55;4.90;;;12.10;99.90;;;10.95;100.00;101658.22;5025123;28;20485;-78
2022/06/29 01:56:38;;;;;;;15.45;3.80;;;12.10;99.90;;;10.93;100.00;101653.88;5033517;28;20128;-77
2022/06/29 01:59:04;;;;;;;22.85;4.47;;;12.00;99.90;;;10.92;100.00;101647.75;5021028;28;20037;-78
2022/06/29 02:01:30;;;;;;;18.73;5.57;;;12.00;99.90;;;10.95;100.00;101654.69;5039803;28;20124;-77
2022/06/29 02:03:56;;;;;;;16.05;5.72;;;12.00;99.90;;;10.97;100.00;101655.50;5025095;28;20543;-78
2022/06/29 02:06:23;;;;;;;15.73;7.07;;;12.10;99.90;;;10.98;100.00;101655.47;5020267;28;20052;-77
2022/06/29 02:08:49;;;;;;;26.23;7.40;;;12.10;99.90;;;11.01;100.00;101650.09;5076089;28;20041;-78
2022/06/29 02:11:15;;;;;;;17.35;6.13;;;12.10;99.90;;;11.03;100.00;101650.91;5034664;28;20020;-78
2022/06/29 02:13:41;;;;;;;17.83;5.40;;;12.10;99.90;;;11.00;100.00;101642.25;5026328;28;20024;-77
2022/06/29 02:16:07;;;;;;;11.68;4.35;;;12.10;99.90;;;10.98;100.00;101646.72;5047546;28;20480;-77
2022/06/29 02:18:33;;;;;;;20.92;5.70;;;12.00;99.90;;;10.97;100.00;101651.13;5004318;28;20024;-77
2022/06/29 02:21:01;;;;;;;28.95;5.13;;;12.00;99.90;;;10.92;100.00;101654.81;5011908;28;20086;-78
2022/06/29 02:23:27;;;;;;;28.10;5.65;;;12.00;99.90;;;10.89;100.00;101661.06;5024484;28;20038;-78
2022/06/29 02:25:53;;;;;;;18.42;6.03;;;12.00;99.90;;;10.87;100.00;101654.97;4999030;28;20028;-77
2022/06/29 02:28:19;;;;;;;24.15;6.63;;;12.00;99.90;;;10.91;100.00;101650.44;5037082;28;20041;-78
2022/06/29 02:36:14;;;;;;;14.90;6.15;;;12.10;99.90;;;11.05;100.00;101645.59;5041126;28;20032;-77
2022/06/29 02:38:39;;;;;;;20.48;7.07;;;12.10;99.90;;;11.08;100.00;101641.09;5042863;28;20036;-78
2022/06/29 02:41:05;;;;;;;21.42;7.78;;;12.10;99.90;;;11.14;100.00;101634.72;5030228;28;20032;-78
2022/06/29 02:43:31;;;;;;;;;;;12.10;99.90;;;11.16;100.00;101626.75;5059534;28;20039;-77
2022/06/29 02:45:57;;;;;;;16.77;8.57;;;12.20;99.90;;;11.21;100.00;101622.19;5033018;28;19924;-78
2022/06/29 02:48:23;;;;;;;22.17;7.38;;;12.30;99.90;;;11.25;100.00;101614.13;5040149;28;20085;-78
2022/06/29 02:50:49;;;;;;;32.50;7.90;;;12.30;99.90;;;11.29;100.00;101615.75;5052480;28;20086;-77
2022/06/29 02:53:14;;;;;;;;;;;12.30;99.90;;;11.26;100.00;101618.47;5033688;28;20029;-77
2022/06/29 02:55:40;;;;;;;26.80;5.07;;;12.20;99.90;;;11.21;100.00;101609.88;5029807;28;19905;-77
2022/06/29 02:58:06;;;;;;;21.70;5.28;;;12.20;99.90;;;11.21;100.00;101616.91;5039961;28;20743;-77
2022/06/29 03:00:32;;;;;;;19.00;5.20;;;12.20;99.90;;;11.22;100.00;101608.97;5043707;28;20029;-77
2022/06/29 03:02:58;;;;;;;24.08;5.22;;;12.20;99.90;;;11.25;100.00;101608.88;5034060;28;20041;-78
2022/06/29 03:05:24;;;;;;;27.65;5.63;;;12.30;99.90;;;11.27;100.00;101609.69;5023820;28;20480;-77
2022/06/29 03:07:49;;;;;;;;;;;12.20;99.90;;;11.30;100.00;101611.34;5039908;28;20029;-77
2022/06/29 03:10:15;;;;;;;33.50;6.65;;;12.30;99.90;;;11.29;100.00;101609.59;5043401;28;19938;-77
2022/06/29 03:12:44;;;;;;;32.10;7.55;;;12.30;99.90;;;11.32;100.00;101611.25;5016400;28;20028;-77
2022/06/29 03:15:10;;;;;;;21.27;4.28;;;12.30;99.90;;;11.38;100.00;101613.69;5043221;28;20136;-77
2022/06/29 03:17:36;;;;;;;24.27;6.22;;;12.40;99.90;;;11.44;100.00;101610.81;5055939;28;20028;-77
2022/06/29 03:20:04;;;;;;;36.13;7.03;;;12.40;99.90;;;11.48;100.00;101607.16;5031608;28;20507;-77
2022/06/29 03:22:35;;;;;;;20.63;6.43;;;12.40;99.90;;;11.53;100.00;101597.28;5031605;28;20029;-77
2022/06/29 03:25:02;;;;;;;23.58;7.75;;;12.50;99.90;;;11.62;100.00;101602.25;5024915;28;20197;-78
2022/06/29 03:27:28;;;;;;;24.08;7.70;;;12.60;99.90;;;11.73;100.00;101615.06;5019449;28;20039;-77
2022/06/29 03:29:54;;;;;;;22.83;7.63;;;12.70;99.90;;;11.86;100.00;101618.94;5037211;28;20025;-77
2022/06/29 03:32:19;;;;;;;;;;;12.70;99.90;;;12.00;100.00;101623.72;5025070;28;20081;-77
2022/06/29 03:34:45;;;;;;;21.08;8.25;;;12.90;99.90;;;12.13;100.00;101624.13;5048090;28;19913;-77
2022/06/29 03:37:11;;;;;;;18.80;7.70;;;13.10;99.90;;;12.31;100.00;101627.84;5035042;28;20029;-77
2022/06/29 03:39:44;;;;;;;23.80;8.00;;;13.20;99.90;;;12.51;100.00;101629.66;5053361;28;20032;-77
2022/06/29 03:42:10;;;;;;;27.80;8.15;;;13.60;99.90;;;12.86;100.00;101627.38;5023122;28;20021;-78
2022/06/29 03:44:36;;;;;;;26.90;6.97;;;15.00;99.90;;;14.38;100.00;101639.09;5058892;28;20078;-77
2022/06/29 03:47:01;;;;;;;28.80;5.45;;;16.80;99.90;;;16.28;100.00;101646.13;5046691;28;20082;-77
2022/06/29 03:49:27;;;;;;;;;;;16.90;99.90;;;18.07;96.86;101658.59;5028208;28;20186;-77
2022/06/29 03:51:53;;;;;;;18.73;4.88;;;20.00;99.90;;;19.76;82.94;101666.06;5055886;28;19922;-77
2022/06/29 03:54:19;;;;;;;20.83;4.95;;;20.60;99.90;;;20.09;75.86;101669.97;5043147;28;20480;-77
2022/06/29 03:56:45;;;;;;;17.15;4.72;;;20.70;99.90;;;20.14;75.27;101681.16;5040325;28;20037;-77
2022/06/29 03:59:10;;;;;;;;;;;20.80;99.90;;;21.21;73.60;101684.88;5014521;28;20400;-78
2022/06/29 04:01:36;;;;;;;7.15;3.15;;;22.30;99.90;;;21.96;69.41;101695.16;5036650;28;20372;-77
2022/06/29 04:04:02;;;;;;;;;;;22.30;99.90;;;23.18;67.64;101707.59;5034885;28;20021;-77
2022/06/29 04:06:28;;;;;;;51.08;5.38;;;24.10;99.90;;;24.15;62.11;101718.94;5034230;28;19912;-77
2022/06/29 04:08:53;;;;;;;;;;;24.20;99.90;;;25.22;60.78;101722.81;5016825;28;20037;-78
2022/06/29 04:14:04;;;;;;;64.57;4.45;;;26.80;99.90;;;27.17;53.47;101747.09;5031957;28;20073;-78
2022/06/29 04:16:29;;;;;;;40.63;4.57;;;27.70;99.90;;;27.97;51.18;101753.31;5029652;28;20025;-77
2022/06/29 04:18:55;;;;;;;;;;;27.70;99.60;;;29.21;49.99;101754.56;5049014;28;20031;-75
2022/06/29 04:21:21;;;;;;;49.05;4.75;;;29.20;97.80;;;29.86;47.06;101756.38;5022734;28;19969;-75
2022/06/29 04:23:46;;;;;;;;;;;29.20;97.20;;;30.62;46.09;101767.63;5042066;28;20028;-75
2022/06/29 04:26:12;;;;;;;50.05;5.15;;;30.40;96.20;;;31.14;44.18;101777.84;5026817;28;20260;-74
2022/06/29 04:28:38;;;;;;;41.28;4.03;;;30.90;95.40;;;31.60;43.50;101782.41;5032176;28;20040;-75
2022/06/29 04:31:04;;;;;;;38.03;4.53;;;31.30;94.70;;;32.12;42.61;101784.28;5034687;28;20078;-75
2022/06/29 04:33:32;;;;;;;29.98;3.78;;;31.80;94.20;;;32.75;41.80;101792.00;5035879;28;20036;-76
2022/06/29 04:35:58;;;;;;;23.38;3.55;;;32.30;92.90;;;33.33;40.64;101802.88;5016756;28;20044;-75
2022/06/29 04:38:24;;;;;;;12.50;3.05;;;32.60;91.50;;;33.59;39.61;101813.22;5034624;28;20029;-75
2022/06/29 04:40:49;;;;;;;18.65;2.85;;;32.80;90.80;;;33.72;38.94;101818.81;5036639;28;20496;-76
2022/06/29 04:43:16;;;;;;;12.80;2.45;;;33.10;90.50;;;33.95;38.73;101834.91;5043155;28;20025;-75
2022/06/29 04:48:26;;;;;;;9.68;1.98;;;33.50;90.20;;;34.62;37.68;101838.03;5033632;28;20553;-75
2022/06/29 04:50:52;;;;;;;18.90;2.70;;;33.70;88.70;;;34.64;37.91;101846.91;5049092;28;20028;-76
2022/06/29 04:53:18;;;;;;;16.10;2.47;;;34.00;90.30;;;35.26;37.72;101840.38;5023168;28;20055;-75
2022/06/29 04:55:43;;;;;;;9.30;2.15;;;34.20;90.80;;;35.75;37.29;101852.03;5029160;28;20388;-74
2022/06/29 04:58:09;;;;;;;11.15;2.58;;;34.40;90.80;;;36.04;36.86;101860.81;5030899;28;20025;-75
2022/06/29 05:00:35;;;;;;;18.08;2.80;;;34.80;90.30;;;36.82;35.98;101860.81;5033675;28;20055;-75
2022/06/29 05:03:01;;;;;;;12.70;2.28;;;35.30;89.10;;;37.79;34.64;101859.75;5039988;28;20030;-75
2022/06/29 05:05:27;;;;;;;9.73;2.83;;;35.90;90.00;;;38.52;34.19;101870.03;5015251;28;20043;-76
2022/06/29 05:07:52;;;;;;;13.02;2.20;;;36.50;87.80;;;39.33;32.99;101882.47;5015176;28;20041;-75
2022/06/29 05:10:18;;;;;;;5.25;2.00;;;37.00;85.10;;;39.30;32.79;101880.19;5046723;28;20029;-76
2022/06/29 05:12:44;;;;;;;9.50;1.90;;;37.20;85.00;;;39.49;33.17;101891.16;5043320;28;20075;-76
2022/06/29 05:15:10;;;;;;;6.85;2.10;;;37.20;79.50;;;39.04;33.03;101899.88;5055328;28;20472;-75
2022/06/29 05:17:37;;;;;;;9.43;1.80;;;37.30;81.70;;;39.28;32.28;101903.53;5033929;28;20043;-76
2022/06/29 05:20:09;;;;;;;6.53;1.95;;;37.40;83.30;;;39.44;31.80;101910.31;5043961;28;20029;-76
2022/06/29 05:22:36;;;;;;;6.85;2.13;;;37.50;82.90;;;40.15;30.99;101922.25;5015693;28;20029;-75
2022/06/29 05:25:21;;;;;;;5.70;1.73;;;37.60;77.20;;;39.92;29.67;101929.47;5018804;28;20017;-76
2022/06/29 05:27:48;;;;;;;11.18;2.20;;;37.10;78.00;;;38.77;31.28;101931.31;5036114;28;20030;-76
2022/06/29 05:30:14;;;;;;;8.35;2.13;;;36.00;77.70;;;37.18;33.25;101922.53;5047181;28;20029;-75
2022/06/29 05:32:42;;;;;;;6.57;1.92;;;35.60;80.00;;;37.21;33.30;101919.34;5041785;28;20036;-75
2022/06/29 05:35:09;;;;;;;9.00;1.70;;;36.00;81.90;;;38.50;32.21;101921.69;5051206;28;20021;-75
2022/06/29 05:37:36;;;;;;;3.92;1.55;;;36.00;77.50;;;37.77;32.03;101931.44;5021895;28;20036;-75
2022/06/29 05:40:02;;;;;;;5.72;1.85;;;36.10;80.20;;;38.39;31.85;101937.03;5034460;28;20036;-75
2022/06/29 05:42:29;;;;;;;9.90;1.73;;;35.90;77.30;;;37.38;31.95;101935.28;5043698;28;20018;-75
2022/06/29 05:44:55;;;;;;;4.43;1.70;;;35.70;79.70;;;37.08;32.69;101933.09;5034969;28;20126;-75
2022/06/29 05:47:21;;;;;;;8.40;1.58;;;35.60;79.40;;;37.04;32.77;101931.84;5042687;28;20106;-76
2022/06/29 05:49:47;;;;;;;5.47;1.45;;;35.60;85.50;;;37.13;33.35;101927.84;5045517;28;20024;-75
2022/06/29 05:52:13;;;;;;;6.28;1.63;;;35.70;82.70;;;37.17;32.96;101920.84;5041875;28;20021;-75
2022/06/29 05:54:38;;;;;;;8.90;1.60;;;35.40;77.70;;;36.32;33.12;101921.75;5033619;28;20175;-76
2022/06/29 05:57:05;;;;;;;3.67;1.45;;;35.30;79.20;;;36.34;33.04;101921.53;5045540;28;20029;-75
2022/06/29 05:59:31;;;;;;;18.65;2.53;;;34.90;78.60;;;36.01;33.39;101913.34;5050812;28;20040;-75
2022/06/29 06:01:57;;;;;;;4.72;1.60;;;34.40;78.20;;;34.88;34.53;101900.25;5046197;28;20044;-75
2022/06/29 06:04:25;;;;;;;8.68;1.55;;;34.40;80.30;;;35.31;34.39;101905.44;5045627;28;20082;-75
2022/06/29 06:06:51;;;;;;;6.53;1.60;;;34.30;78.60;;;34.81;34.48;101908.44;5054321;28;20041;-79
2022/06/29 06:09:21;;;;;;;6.15;1.50;;;34.40;78.40;;;35.49;33.20;101910.34;5008303;28;20052;-75
2022/06/29 06:11:47;;;;;;;5.47;1.63;;;34.10;78.20;;;34.78;34.20;101908.00;5015622;28;20029;-76
2022/06/29 06:14:12;;;;;;;8.38;1.40;;;33.80;78.90;;;33.99;35.40;101888.13;5035997;28;20496;-75
2022/06/29 06:16:38;;;;;;;6.00;1.50;;;33.50;80.70;;;34.25;34.91;101894.84;5037677;28;20120;-78
2022/06/29 06:19:04;;;;;;;3.55;1.42;;;33.30;78.10;;;34.19;34.68;101904.72;5015497;28;20055;-76
2022/06/29 06:21:30;;;;;;;7.35;1.48;;;33.30;79.80;;;34.34;34.61;101901.84;5035578;28;22809;-76
2022/06/29 06:23:56;;;;;;;4.30;1.30;;;33.50;78.00;;;34.22;34.51;101889.78;5036046;28;20029;-78
2022/06/29 06:26:21;;;;;;;5.97;1.60;;;33.80;79.20;;;34.69;34.73;101894.50;5049005;28;20507;-76
2022/06/29 06:28:47;;;;;;;4.88;1.77;;;34.20;78.10;;;35.46;33.22;101905.28;5054656;28;20049;-76
2022/06/29 06:31:13;;;;;;;6.88;1.52;;;34.60;76.80;;;35.98;32.69;101908.25;5026431;28;20031;-75
2022/06/29 06:33:39;;;;;;;3.92;1.60;;;35.40;78.20;;;37.39;31.50;101915.00;5044168;28;20049;-76
2022/06/29 06:36:05;;;;;;;4.15;1.50;;;36.10;77.60;;;38.02;29.99;101914.94;5043068;28;20439;-77
2022/06/29 06:38:30;;;;;;;4.57;1.40;;;36.70;73.20;;;38.15;29.84;101919.50;5042193;28;20021;-76
2022/06/29 06:43:42;;;;;;;3.55;1.38;;;36.50;70.40;;;36.32;31.06;101924.47;5034501;28;20522;-76
2022/06/29 06:46:10;;;;;;;5.07;1.40;;;36.10;72.40;;;36.21;31.07;101911.44;5043093;28;20044;-77
2022/06/29 06:48:37;;;;;;;4.60;1.40;;;36.10;70.30;;;36.29;29.54;101924.09;5041408;28;23333;-77
2022/06/29 06:51:03;;;;;;;3.28;1.10;;;36.00;68.70;;;36.16;30.02;101946.88;5027372;28;20025;-75
2022/06/29 06:53:28;;;;;;;5.28;1.25;;;36.00;68.50;;;36.20;29.85;101945.41;5036572;28;20392;-76
2022/06/29 06:55:54;;;;;;;6.63;1.20;;;36.00;69.20;;;36.42;29.98;101948.72;5030358;28;20032;-76
2022/06/29 06:58:25;;;;;;;4.47;1.42;;;36.30;72.80;;;36.78;29.88;101938.31;5027635;28;20048;-76
2022/06/29 07:00:51;;;;;;;4.70;1.35;;;36.40;70.00;;;36.95;28.93;101942.25;5043177;28;20040;-76
2022/06/29 07:03:17;;;;;;;6.28;1.27;;;36.60;67.50;;;37.00;28.71;101945.19;5044927;28;21551;-76
2022/06/29 07:05:43;;;;;;;9.32;1.50;;;36.70;69.50;;;37.13;29.11;101933.34;5026177;28;20039;-77
2022/06/29 07:08:08;;;;;;;4.05;1.30;;;36.60;70.50;;;35.91;31.26;101909.09;5033371;28;20146;-76
2022/06/29 07:10:34;;;;;;;3.85;1.33;;;36.40;69.70;;;36.21;31.40;101902.38;5025193;28;20105;-76
2022/06/29 07:13:00;;;;;;;5.00;1.20;;;36.40;70.30;;;36.50;30.86;101895.53;5027442;28;20095;-76
2022/06/29 07:15:26;;;;;;;4.82;1.45;;;36.90;71.10;;;37.39;29.30;101898.50;5025965;28;20060;-75
2022/06/29 07:17:51;;;;;;;4.22;1.50;;;37.20;69.40;;;37.59;29.06;101910.25;5016730;28;20138;-76
2022/06/29 07:20:17;;;;;;;3.53;1.40;;;37.20;69.50;;;37.11;29.61;101908.00;5041675;28;20496;-76
2022/06/29 07:22:43;;;;;;;4.78;1.55;;;37.10;69.30;;;36.75;30.17;101893.78;5047826;28;20155;-76
2022/06/29 07:25:09;;;;;;;6.55;1.65;;;37.00;68.30;;;36.82;29.73;101898.41;5046555;28;20025;-76
2022/06/29 07:27:34;;;;;;;5.18;1.55;;;36.90;69.50;;;36.78;30.05;101887.00;5029362;28;20574;-76
2022/06/29 07:30:00;;;;;;;3.55;1.42;;;36.40;67.70;;;35.75;31.37;101871.19;5042429;28;20503;-76
2022/06/29 07:32:26;;;;;;;4.88;1.58;;;36.50;70.20;;;36.80;30.94;101873.06;5049763;28;20056;-77
2022/06/29 07:34:54;;;;;;;6.30;1.40;;;36.10;67.00;;;35.63;30.36;101865.50;5036698;28;20118;-76
2022/06/29 07:37:20;;;;;;;4.57;1.50;;;36.30;67.60;;;36.25;29.52;101874.31;5052163;28;20502;-76
2022/06/29 07:39:46;;;;;;;6.05;1.52;;;36.10;70.60;;;35.93;31.31;101848.63;5013974;28;20036;-76
2022/06/29 07:42:12;;;;;;;4.63;1.55;;;35.80;70.30;;;35.53;31.84;101851.34;5016958;28;20576;-76
2022/06/29 07:44:37;;;;;;;4.75;1.50;;;35.60;69.80;;;35.15;31.20;101838.25;5040282;28;20503;-76
2022/06/29 07:47:03;;;;;;;4.18;1.30;;;34.40;69.90;;;33.06;33.83;101824.44;5039467;28;20025;-77
2022/06/29 07:49:30;;;;;;;6.28;1.73;;;34.20;73.10;;;33.66;33.76;101809.50;5037622;28;20021;-76
2022/06/29 07:51:56;;;;;;;3.65;1.20;;;34.30;72.70;;;34.15;32.58;101815.97;5031888;28;20396;-77
2022/06/29 07:54:22;;;;;;;5.00;1.50;;;33.80;71.20;;;33.19;33.78;101804.66;5024469;28;20027;-77
2022/06/29 07:56:50;;;;;;;4.30;1.42;;;33.40;72.00;;;32.82;34.10;101787.47;5015335;28;20040;-77
2022/06/29 07:59:16;;;;;;;3.95;1.40;;;33.10;73.90;;;32.84;34.52;101778.06;5032115;28;20050;-75
2022/06/29 08:01:42;;;;;;;4.90;1.35;;;32.50;72.40;;;32.05;35.09;101767.84;5050492;28;20040;-76
2022/06/29 08:04:08;;;;;;;5.88;1.15;;;32.20;73.70;;;31.43;35.64;101749.91;5040922;28;20989;-77
2022/06/29 08:06:36;;;;;;;5.95;1.67;;;31.80;74.90;;;31.18;36.03;101745.69;5039831;28;20104;-77
2022/06/29 08:09:03;;;;;;;5.28;1.30;;;31.40;74.40;;;31.03;35.91;101740.19;5022358;28;20509;-76
2022/06/29 08:11:29;;;;;;;3.67;1.35;;;31.10;75.60;;;30.94;36.12;101733.13;5003706;28;20055;-77
2022/06/29 08:13:55;;;;;;;6.70;1.33;;;30.80;74.70;;;30.61;36.75;101727.91;5046240;28;20020;-77
2022/06/29 08:16:21;;;;;;;10.60;1.23;;;30.60;77.50;;;30.26;37.41;101713.81;5041029;28;20041;-77
2022/06/29 08:18:47;;;;;;;5.65;1.23;;;30.50;76.80;;;30.20;37.67;101698.22;5006130;28;20047;-75
2022/06/29 08:21:15;;;;;;;2.65;1.08;;;30.20;76.40;;;29.69;37.24;101694.97;5026550;28;20093;-76
2022/06/29 08:23:41;;;;;;;5.75;1.55;;;29.90;76.80;;;29.61;38.23;101680.41;5002701;28;20460;-76
2022/06/29 08:26:07;;;;;;;9.98;1.38;;;29.70;77.20;;;29.32;38.60;101677.44;5018477;28;20021;-78
2022/06/29 08:28:33;;;;;;;4.97;1.25;;;29.50;75.30;;;29.11;38.10;101672.53;5012441;28;20087;-76
2022/06/29 08:30:59;;;;;;;4.88;1.35;;;29.10;78.30;;;28.42;39.46;101656.50;5030730;28;20116;-76
2022/06/29 08:33:31;;;;;;;4.53;1.30;;;28.80;78.90;;;28.36;41.18;101639.06;5008163;28;20049;-76
2022/06/29 08:35:57;;;;;;;3.42;1.27;;;28.60;81.70;;;28.04;41.70;101626.28;5038809;28;20067;-76
2022/06/29 08:38:22;;;;;;;5.22;1.50;;;28.50;83.90;;;28.14;41.91;101624.28;5040099;28;20033;-76
2022/06/29 08:40:49;;;;;;;2.55;1.30;;;28.40;82.90;;;27.80;43.69;101608.91;5028305;28;20052;-77
2022/06/29 08:43:17;;;;;;;6.82;1.50;;;28.20;84.40;;;27.26;44.88;101602.03;5029908;28;20487;-76
2022/06/29 08:45:47;;;;;;;5.63;1.45;;;28.00;84.10;;;27.16;44.21;101610.25;5022215;28;20543;-81
2022/06/29 08:48:17;;;;;;;4.63;1.20;;;27.70;83.60;;;26.98;43.52;101610.28;5004591;28;20033;-76
2022/06/29 08:50:50;;;;;;;5.78;1.50;;;27.60;83.20;;;26.73;43.51;101609.25;5039638;28;20025;-76
2022/06/29 08:53:21;;;;;;;2.60;0.90;;;27.30;80.70;;;26.66;42.39;101614.41;5013875;28;20103;-77
2022/06/29 08:55:55;;;;;;;3.00;1.13;;;27.40;83.90;;;26.97;42.56;101605.88;5023448;28;21008;-77
2022/06/29 08:58:25;;;;;;;4.03;1.45;;;27.30;83.30;;;26.69;43.34;101600.59;5017229;28;20034;-76
2022/06/29 09:00:52;;;;;;;6.88;1.40;;;27.50;82.10;;;27.12;41.90;101601.59;5003538;28;21293;-77
2022/06/29 09:03:23;;;;;;;4.80;1.30;;;27.60;83.50;;;27.19;42.81;101618.88;5023046;28;20075;-78
2022/06/29 09:05:56;;;;;;;3.17;1.05;;;27.60;83.80;;;27.24;42.51;101613.03;5028928;28;20531;-76
2022/06/29 09:08:25;;;;;;;9.27;1.33;;;27.60;83.20;;;27.25;43.04;101601.19;5016899;28;20442;-77
2022/06/29 09:10:51;;;;;;;7.30;1.50;;;27.70;84.20;;;27.24;43.96;101595.97;5029769;28;20029;-76
2022/06/29 09:13:27;;;;;;;3.25;1.25;;;27.80;84.50;;;27.36;43.35;101594.66;5015916;28;20170;-76
2022/06/29 09:16:00;;;;;;;;;;;27.70;85.40;;;26.63;44.97;101598.53;4999348;28;20041;-76
2022/06/29 09:18:33;;;;;;;4.80;1.25;;;27.40;83.40;;;26.68;42.93;101604.31;4976761;28;20001;-77
2022/06/29 09:21:05;;;;;;;8.27;1.40;;;27.00;82.10;;;25.96;44.12;101601.53;5046234;28;20075;-77
2022/06/29 09:23:34;;;;;;;5.03;1.40;;;26.80;86.00;;;25.94;45.09;101600.84;5035999;28;20025;-77
2022/06/29 09:26:06;;;;;;;4.07;1.38;;;26.80;85.70;;;25.93;45.38;101601.84;5022625;28;20059;-76
2022/06/29 09:28:36;;;;;;;6.30;1.58;;;26.60;86.10;;;26.04;45.38;101597.22;5013800;28;22237;-76
2022/06/29 09:31:05;;;;;;;3.88;1.30;;;26.50;83.10;;;25.86;43.84;101614.19;5022091;28;20039;-77
2022/06/29 09:33:34;;;;;;;6.45;1.20;;;26.70;86.30;;;26.51;44.91;101591.63;5032589;28;20078;-76
2022/06/29 09:36:18;;;;;;;7.20;1.40;;;26.80;84.90;;;26.44;44.65;101579.78;5013544;28;20031;-77
2022/06/29 09:38:50;;;;;;;5.93;1.30;;;26.80;87.60;;;26.38;45.83;101568.56;5001651;28;20438;-76
2022/06/29 09:41:25;;;;;;;7.68;1.50;;;26.80;87.70;;;26.18;45.86;101575.97;5007637;28;20508;-77
2022/06/29 09:43:51;;;;;;;4.72;1.35;;;26.60;87.30;;;25.92;46.35;101581.25;5032392;28;20472;-78
2022/06/29 09:46:17;;;;;;;5.35;1.38;;;26.40;87.10;;;25.91;46.54;101571.44;5031370;28;20082;-77
2022/06/29 09:48:47;;;;;;;6.32;1.40;;;26.20;89.20;;;25.44;47.88;101563.44;5035213;28;20039;-77
2022/06/29 09:51:35;;;;;;;4.18;1.50;;;26.10;89.00;;;25.42;47.37;101565.44;4996923;28;20075;-77
2022/06/29 09:54:12;;;;;;;3.83;1.50;;;26.20;89.60;;;25.77;47.63;101569.25;5036317;28;20032;-77
2022/06/29 09:57:03;;;;;;;11.25;1.83;;;26.30;89.60;;;26.05;46.16;101580.03;5019259;28;20059;-76
2022/06/29 10:02:45;;;;;;;3.55;1.50;;;26.00;89.40;;;25.50;47.52;101570.09;5017080;28;20043;-77
2022/06/29 10:05:22;;;;;;;4.30;1.30;;;25.90;88.20;;;24.86;48.14;101572.53;5029736;28;20049;-78
2022/06/29 10:07:56;;;;;;;6.68;1.83;;;25.80;89.80;;;25.49;48.60;101565.69;5023597;28;20048;-76
2022/06/29 10:10:26;;;;;;;8.70;1.40;;;25.90;88.40;;;25.39;46.72;101568.44;4993050;28;20025;-77
2022/06/29 10:16:48;;;;;;;5.57;1.30;;;26.00;88.00;;;25.63;46.45;101564.34;5042763;28;20086;-76
2022/06/29 10:20:14;;;;;;;4.25;1.35;;;26.00;89.10;;;25.03;47.26;101560.13;5033343;28;20029;-78
2022/06/29 10:22:46;;;;;;;3.80;1.35;;;25.70;89.70;;;24.99;48.72;101550.66;4938146;28;20043;-77
2022/06/29 10:25:27;;;;;;;3.40;1.20;;;25.60;90.10;;;25.15;47.90;101550.03;4935934;28;20057;-79
2022/06/29 10:28:20;;;;;;;4.43;1.35;;;25.70;89.20;;;25.28;47.56;101547.06;4982975;28;20025;-76
2022/06/29 10:30:50;;;;;;;6.47;1.58;;;25.60;91.10;;;25.08;49.02;101552.47;5041633;28;20509;-78
2022/06/29 10:33:38;;;;;;;3.78;1.35;;;25.50;90.10;;;24.78;49.25;101553.53;5017821;28;20059;-77